Polfoss — V2PN7 — position and weather

sailwx.info

Track history (hours):
 
Tides and Currents Weather Stations Pressure Air Temp Water Temp Dewpoint Dewpoint Depression Visibility Wind Speed Wind Dir Waves Ship Positions

Polfoss

Last reported at 2015-Apr-28 03:31 UTC. Time now 2015-Apr-28 03:52 UTC.
Position N 52°28' E 004°40'.

Length 82 m; draft 6.2 m.

Type: Cargo ship. MMSI: 305081000.

Date/timePositionNaut miles runAvg speedWind from/ knotsBaromVisibWave heightAir tempDewpointWater temp
2015-Apr-28 03:31N 52°28' E 004°40'0 0.0
2015-Apr-28 02:26N 52°28' E 004°40'0 0.0
2015-Apr-28 01:29N 52°28' E 004°40'0 0.0
2015-Apr-28 00:31N 52°28' E 004°40'0 0.0
2015-Apr-27 23:31N 52°28' E 004°40'0 0.0
2015-Apr-27 22:33N 52°28' E 004°40'0 0.0
2015-Apr-27 21:29N 52°28' E 004°40'0 0.0
2015-Apr-27 20:32N 52°28' E 004°40'0 0.0
2015-Apr-27 19:31N 52°28' E 004°40'0 0.0
2015-Apr-27 18:33N 52°28' E 004°40'0 0.0
2015-Apr-27 17:33N 52°28' E 004°40'0 0.0
2015-Apr-27 16:32N 52°28' E 004°40'0 0.0
2015-Apr-27 15:31N 52°28' E 004°40'0 0.0
2015-Apr-27 14:25N 52°28' E 004°40'0 0.0
2015-Apr-27 13:33N 52°28' E 004°40'0 0.0
2015-Apr-27 12:32N 52°28' E 004°40'0 0.0
2015-Apr-27 11:32N 52°28' E 004°40'0 0.0
2015-Apr-27 10:31N 52°28' E 004°40'0 0.0
2015-Apr-27 09:33N 52°28' E 004°40'0 0.0
2015-Apr-27 08:33N 52°28' E 004°40'0 0.0
2015-Apr-27 07:32N 52°28' E 004°40'0 0.0
2015-Apr-27 06:28N 52°28' E 004°40'0 0.0
2015-Apr-27 05:31N 52°28' E 004°40'0 0.0
2015-Apr-27 04:27N 52°28' E 004°40'0 0.0
2015-Apr-27 03:32N 52°28' E 004°40'0 0.0
2015-Apr-27 02:32N 52°28' E 004°40'0 0.0
2015-Apr-27 01:31N 52°28' E 004°40'0 0.0
2015-Apr-27 00:30N 52°28' E 004°40'0 0.0
2015-Apr-26 23:33N 52°28' E 004°40'0 0.0
2015-Apr-26 22:32N 52°28' E 004°40'0 0.0
2015-Apr-26 21:29N 52°28' E 004°40'0 0.0
2015-Apr-26 20:31N 52°28' E 004°40'0 0.0
2015-Apr-26 19:33N 52°28' E 004°40'0 0.0
2015-Apr-26 18:33N 52°28' E 004°40'0 0.0
2015-Apr-26 17:33N 52°28' E 004°40'0 0.0
2015-Apr-26 16:33N 52°28' E 004°40'3 3.2
2015-Apr-26 15:33N 52°28' E 004°35'1212.2
2015-Apr-26 14:33N 52°40' E 004°29'1614.6
2015-Apr-26 13:27N 52°56' E 004°29'35313.6
2015-Apr-25 11:34N 58°48' E 005°18'1312.9
2015-Apr-25 10:33N 59°01' E 005°19'1312.7
2015-Apr-25 09:33N 59°13' E 005°20'1211.8
2015-Apr-25 08:34N 59°25' E 005°15'  
2015-Apr-22 20:07N 63°35' E 009°26'914.0
2015-Apr-22 19:30N 63°43' E 009°32'7811.3
2015-Apr-22 12:33N 64°49' E 011°09'1312.6
2015-Apr-22 11:34N 64°58' E 011°32'1412.4
2015-Apr-22 10:26N 65°09' E 011°50'8213.4
2015-Apr-22 04:20N 66°26' E 012°59'2713.4
2015-Apr-22 02:19N 66°51' E 013°20'911.9
2015-Apr-22 01:32N 66°59' E 013°34'1313.5
2015-Apr-22 00:33N 67°07' E 014°00'1313.4
2015-Apr-21 23:33N 67°19' E 014°18'1212.3
2015-Apr-21 22:33N 67°31' E 014°21'1414.0
2015-Apr-21 21:32N 67°44' E 014°09'1313.0
2015-Apr-21 20:33N 67°57' E 013°59'1111.1
2015-Apr-21 19:33N 68°07' E 013°50'8 6.2
2015-Apr-21 18:12N 68°12' E 014°10'131 4.4
2015-Apr-20 12:15N 69°35' E 018°49'4 5.7
2015-Apr-20 11:33N 69°38' E 018°57'0 0.0
2015-Apr-20 10:33N 69°38' E 018°57'0 0.0
2015-Apr-20 09:33N 69°38' E 018°57'0 0.0
2015-Apr-20 08:33N 69°38' E 018°57'0 0.0
2015-Apr-20 07:33N 69°38' E 018°57'0 0.0
2015-Apr-20 06:33N 69°38' E 018°57'0 0.0
2015-Apr-20 05:33N 69°38' E 018°57'0 0.0
2015-Apr-20 04:33N 69°38' E 018°57'0 0.0
2015-Apr-20 03:33N 69°38' E 018°57'0 0.0
2015-Apr-20 02:33N 69°38' E 018°57'0 0.0
2015-Apr-20 01:33N 69°38' E 018°57'0 0.0
2015-Apr-20 00:33N 69°38' E 018°57'0 0.0
2015-Apr-19 23:33N 69°38' E 018°57'0 0.0
2015-Apr-19 22:32N 69°38' E 018°57'0 0.0
2015-Apr-19 21:33N 69°38' E 018°57'2 1.9
2015-Apr-19 20:33N 69°39' E 018°58'0 0.0
2015-Apr-19 19:33N 69°39' E 018°58'0 0.0
2015-Apr-19 18:33N 69°39' E 018°58'0 0.0
2015-Apr-19 17:33N 69°39' E 018°58'0 0.0
2015-Apr-19 16:33N 69°39' E 018°58'0 0.0
2015-Apr-19 15:33N 69°39' E 018°58'0 0.0
2015-Apr-19 14:34N 69°39' E 018°58'0 0.0
2015-Apr-19 13:33N 69°39' E 018°58'0 0.0
2015-Apr-19 12:33N 69°39' E 018°58'0 0.0
2015-Apr-19 11:33N 69°39' E 018°58'0 0.0
2015-Apr-19 10:33N 69°39' E 018°58'0 0.0
2015-Apr-19 09:33N 69°39' E 018°58'0 0.0
2015-Apr-19 08:33N 69°39' E 018°58'0 0.0
2015-Apr-19 07:33N 69°39' E 018°58'0 0.0
2015-Apr-19 06:33N 69°39' E 018°58'0 0.0
2015-Apr-19 05:33N 69°39' E 018°58'0 0.0
2015-Apr-19 04:34N 69°39' E 018°58'0 0.0
2015-Apr-19 03:33N 69°39' E 018°58'0 0.0
2015-Apr-19 02:33N 69°39' E 018°58'0 0.0
2015-Apr-19 01:33N 69°39' E 018°58'0 0.3
2015-Apr-19 00:33N 69°40' E 018°59'8212.9
2015-Apr-18 18:13N 70°27' E 022°14'913.6
2015-Apr-18 17:32N 70°29' E 022°41'1413.8
2015-Apr-18 16:33N 70°36' E 023°16'8 8.1
2015-Apr-18 15:33N 70°38' E 023°40'1 0.9
2015-Apr-18 14:33N 70°38' E 023°37'1211.1
2015-Apr-18 13:26N 70°49' E 023°53'  
Track history (hours):
 
Tides and Currents Weather Stations Pressure Air Temp Water Temp Dewpoint Dewpoint Depression Visibility Wind Speed Wind Dir Waves Ship Positions

Polfoss

Last reported at 2015-Apr-28 03:31 UTC. Time now 2015-Apr-28 03:52 UTC.
Position N 52°28' E 004°40'.

Length 82 m; draft 6.2 m.

Type: Cargo ship. MMSI: 305081000.

Date/timePositionNaut miles runAvg speedWind from/ knotsBaromVisibWave heightAir tempDewpointWater temp
2015-Apr-28 03:31N 52°28' E 004°40'0 0.0
2015-Apr-28 02:26N 52°28' E 004°40'0 0.0
2015-Apr-28 01:29N 52°28' E 004°40'0 0.0
2015-Apr-28 00:31N 52°28' E 004°40'0 0.0
2015-Apr-27 23:31N 52°28' E 004°40'0 0.0
2015-Apr-27 22:33N 52°28' E 004°40'0 0.0
2015-Apr-27 21:29N 52°28' E 004°40'0 0.0
2015-Apr-27 20:32N 52°28' E 004°40'0 0.0
2015-Apr-27 19:31N 52°28' E 004°40'0 0.0
2015-Apr-27 18:33N 52°28' E 004°40'0 0.0
2015-Apr-27 17:33N 52°28' E 004°40'0 0.0
2015-Apr-27 16:32N 52°28' E 004°40'0 0.0
2015-Apr-27 15:31N 52°28' E 004°40'0 0.0
2015-Apr-27 14:25N 52°28' E 004°40'0 0.0
2015-Apr-27 13:33N 52°28' E 004°40'0 0.0
2015-Apr-27 12:32N 52°28' E 004°40'0 0.0
2015-Apr-27 11:32N 52°28' E 004°40'0 0.0
2015-Apr-27 10:31N 52°28' E 004°40'0 0.0
2015-Apr-27 09:33N 52°28' E 004°40'0 0.0
2015-Apr-27 08:33N 52°28' E 004°40'0 0.0
2015-Apr-27 07:32N 52°28' E 004°40'0 0.0
2015-Apr-27 06:28N 52°28' E 004°40'0 0.0
2015-Apr-27 05:31N 52°28' E 004°40'0 0.0
2015-Apr-27 04:27N 52°28' E 004°40'0 0.0
2015-Apr-27 03:32N 52°28' E 004°40'0 0.0
2015-Apr-27 02:32N 52°28' E 004°40'0 0.0
2015-Apr-27 01:31N 52°28' E 004°40'0 0.0
2015-Apr-27 00:30N 52°28' E 004°40'0 0.0
2015-Apr-26 23:33N 52°28' E 004°40'0 0.0
2015-Apr-26 22:32N 52°28' E 004°40'0 0.0
2015-Apr-26 21:29N 52°28' E 004°40'0 0.0
2015-Apr-26 20:31N 52°28' E 004°40'0 0.0
2015-Apr-26 19:33N 52°28' E 004°40'0 0.0
2015-Apr-26 18:33N 52°28' E 004°40'0 0.0
2015-Apr-26 17:33N 52°28' E 004°40'0 0.0
2015-Apr-26 16:33N 52°28' E 004°40'3 3.2
2015-Apr-26 15:33N 52°28' E 004°35'1212.2
2015-Apr-26 14:33N 52°40' E 004°29'1614.6
2015-Apr-26 13:27N 52°56' E 004°29'35313.6
2015-Apr-25 11:34N 58°48' E 005°18'1312.9
2015-Apr-25 10:33N 59°01' E 005°19'1312.7
2015-Apr-25 09:33N 59°13' E 005°20'1211.8
2015-Apr-25 08:34N 59°25' E 005°15'  
2015-Apr-22 20:07N 63°35' E 009°26'914.0
2015-Apr-22 19:30N 63°43' E 009°32'7811.3
2015-Apr-22 12:33N 64°49' E 011°09'1312.6
2015-Apr-22 11:34N 64°58' E 011°32'1412.4
2015-Apr-22 10:26N 65°09' E 011°50'8213.4
2015-Apr-22 04:20N 66°26' E 012°59'2713.4
2015-Apr-22 02:19N 66°51' E 013°20'911.9
2015-Apr-22 01:32N 66°59' E 013°34'1313.5
2015-Apr-22 00:33N 67°07' E 014°00'1313.4
2015-Apr-21 23:33N 67°19' E 014°18'1212.3
2015-Apr-21 22:33N 67°31' E 014°21'1414.0
2015-Apr-21 21:32N 67°44' E 014°09'1313.0
2015-Apr-21 20:33N 67°57' E 013°59'1111.1
2015-Apr-21 19:33N 68°07' E 013°50'8 6.2
2015-Apr-21 18:12N 68°12' E 014°10'131 4.4
2015-Apr-20 12:15N 69°35' E 018°49'4 5.7
2015-Apr-20 11:33N 69°38' E 018°57'0 0.0
2015-Apr-20 10:33N 69°38' E 018°57'0 0.0
2015-Apr-20 09:33N 69°38' E 018°57'0 0.0
2015-Apr-20 08:33N 69°38' E 018°57'0 0.0
2015-Apr-20 07:33N 69°38' E 018°57'0 0.0
2015-Apr-20 06:33N 69°38' E 018°57'0 0.0
2015-Apr-20 05:33N 69°38' E 018°57'0 0.0
2015-Apr-20 04:33N 69°38' E 018°57'0 0.0
2015-Apr-20 03:33N 69°38' E 018°57'0 0.0
2015-Apr-20 02:33N 69°38' E 018°57'0 0.0
2015-Apr-20 01:33N 69°38' E 018°57'0 0.0
2015-Apr-20 00:33N 69°38' E 018°57'0 0.0
2015-Apr-19 23:33N 69°38' E 018°57'0 0.0
2015-Apr-19 22:32N 69°38' E 018°57'0 0.0
2015-Apr-19 21:33N 69°38' E 018°57'2 1.9
2015-Apr-19 20:33N 69°39' E 018°58'0 0.0
2015-Apr-19 19:33N 69°39' E 018°58'0 0.0
2015-Apr-19 18:33N 69°39' E 018°58'0 0.0
2015-Apr-19 17:33N 69°39' E 018°58'0 0.0
2015-Apr-19 16:33N 69°39' E 018°58'0 0.0
2015-Apr-19 15:33N 69°39' E 018°58'0 0.0
2015-Apr-19 14:34N 69°39' E 018°58'0 0.0
2015-Apr-19 13:33N 69°39' E 018°58'0 0.0
2015-Apr-19 12:33N 69°39' E 018°58'0 0.0
2015-Apr-19 11:33N 69°39' E 018°58'0 0.0
2015-Apr-19 10:33N 69°39' E 018°58'0 0.0
2015-Apr-19 09:33N 69°39' E 018°58'0 0.0
2015-Apr-19 08:33N 69°39' E 018°58'0 0.0
2015-Apr-19 07:33N 69°39' E 018°58'0 0.0
2015-Apr-19 06:33N 69°39' E 018°58'0 0.0
2015-Apr-19 05:33N 69°39' E 018°58'0 0.0
2015-Apr-19 04:34N 69°39' E 018°58'0 0.0
2015-Apr-19 03:33N 69°39' E 018°58'0 0.0
2015-Apr-19 02:33N 69°39' E 018°58'0 0.0
2015-Apr-19 01:33N 69°39' E 018°58'0 0.3
2015-Apr-19 00:33N 69°40' E 018°59'8212.9
2015-Apr-18 18:13N 70°27' E 022°14'913.6
2015-Apr-18 17:32N 70°29' E 022°41'1413.8
2015-Apr-18 16:33N 70°36' E 023°16'8 8.1
2015-Apr-18 15:33N 70°38' E 023°40'1 0.9
2015-Apr-18 14:33N 70°38' E 023°37'1211.1
2015-Apr-18 13:26N 70°49' E 023°53'  

Dump ship's entire track history